Time;durP1;ratioP1;P1;durP2;ratioP2;P2;SDS_P1;SDS_P2;PMS_P1;PMS_P2;Temp;Humidity;BMP_temperature;BMP_pressure;BME280_temperature;BME280_humidity;BME280_pressure;Samples;Min_cycle;Max_cycle;Signal;HPM_P1;HPM_P2
2023/06/17 00:00:32;;;;;;;15.68;12.27;;;;;;;-144.30;99.66;85008.81;5110654;28;20237;-56
2023/06/17 00:02:59;;;;;;;13.27;11.98;;;;;;;-144.30;99.60;84977.00;5110552;28;20205;-55
2023/06/17 00:05:26;;;;;;;14.38;11.77;;;;;;;-144.30;99.65;84963.09;5110751;28;20582;-55
2023/06/17 00:07:54;;;;;;;13.27;11.75;;;;;;;-144.30;99.22;84973.03;5110317;28;20219;-55
2023/06/17 00:10:21;;;;;;;12.95;11.70;;;;;;;-144.30;98.55;84975.00;5110694;28;20696;-60
2023/06/17 00:12:49;;;;;;;13.07;11.75;;;;;;;-144.30;98.47;84996.88;5111598;28;20190;-60
2023/06/17 00:15:18;;;;;;;13.65;11.98;;;;;;;-144.30;98.33;84955.13;5111868;28;20551;-61
2023/06/17 00:17:46;;;;;;;12.93;11.80;;;;;;;-144.30;98.03;84965.06;5108418;28;20205;-62
2023/06/17 00:20:14;;;;;;;14.00;12.60;;;;;;;-144.30;97.97;85128.06;5111322;28;20285;-62
2023/06/17 00:22:43;;;;;;;14.02;12.73;;;;;;;-144.30;98.73;84982.97;5110997;28;20247;-60
2023/06/17 00:25:12;;;;;;;14.88;13.50;;;;;;;-144.30;98.74;84979.00;5110583;28;20214;-60
2023/06/17 00:27:40;;;;;;;14.32;12.93;;;;;;;-144.30;98.57;85010.78;5110789;28;20194;-61
2023/06/17 00:30:08;;;;;;;12.88;11.77;;;;;;;-144.30;98.72;84975.00;5110428;28;20195;-56
2023/06/17 00:32:36;;;;;;;13.73;12.45;;;;;;;-144.30;98.00;85010.78;5109962;28;20191;-56
2023/06/17 00:35:05;;;;;;;13.48;11.63;;;;;;;-144.30;97.29;84959.13;5110448;28;20223;-62
2023/06/17 00:37:32;;;;;;;13.93;11.90;;;;;;;-144.30;97.70;85018.75;5110726;28;20239;-61
2023/06/17 00:39:59;;;;;;;13.88;12.23;;;;;;;-144.30;97.89;84971.03;5110779;28;20210;-61
2023/06/17 00:42:27;;;;;;;12.43;11.38;;;;;;;-144.30;97.70;84994.91;5110786;28;20679;-61
2023/06/17 00:44:54;;;;;;;12.75;11.60;;;;;;;-144.30;97.32;84975.00;5111062;28;20252;-60
2023/06/17 00:47:21;;;;;;;12.90;11.80;;;;;;;-144.30;97.95;85018.75;5110706;28;20199;-57
2023/06/17 00:49:49;;;;;;;14.27;11.05;;;;;;;-144.30;97.57;85028.69;5109947;28;20187;-56
2023/06/17 00:52:17;;;;;;;13.55;11.50;;;;;;;-144.30;97.98;85026.69;5109819;28;20191;-55
2023/06/17 00:54:44;;;;;;;13.30;11.88;;;;;;;-144.30;98.67;84984.97;5106870;28;20187;-56
2023/06/17 00:57:13;;;;;;;14.48;13.18;;;;;;;-144.30;99.11;85010.78;5109545;28;20675;-56
2023/06/17 00:59:43;;;;;;;17.13;15.52;;;;;;;-144.30;98.70;84971.03;5109898;28;20210;-57
2023/06/17 01:02:11;;;;;;;18.60;16.70;;;;;;;-144.30;98.72;85000.84;5109596;28;20198;-56
2023/06/17 01:04:40;;;;;;;19.70;17.05;;;;;;;-144.30;98.91;84994.91;5109898;28;20222;-56
2023/06/17 01:07:35;;;;;;;18.73;16.75;;;;;;;-144.30;99.05;85016.75;5110224;28;20279;-56
2023/06/17 01:10:09;;;;;;;18.90;16.90;;;;;;;-144.30;98.98;84998.88;5108844;28;20198;-56
2023/06/17 01:12:37;;;;;;;19.27;17.27;;;;;;;-144.30;98.66;85026.69;5109912;28;20194;-56
2023/06/17 01:15:08;;;;;;;18.65;16.65;;;;;;;-144.30;99.51;84988.94;5109858;28;20191;-56
2023/06/17 01:17:35;;;;;;;17.48;15.30;;;;;;;-144.30;98.33;84955.13;5110242;28;20194;-61
2023/06/17 01:20:06;;;;;;;16.08;14.43;;;;;;;-144.30;98.35;85006.81;5110647;28;20201;-62
2023/06/17 01:22:34;;;;;;;13.48;12.15;;;;;;;-144.30;97.79;85046.56;5109705;28;20234;-55
2023/06/17 01:25:03;;;;;;;14.63;12.32;;;;;;;-144.30;97.69;85004.84;5109656;28;20214;-55
2023/06/17 01:27:33;;;;;;;13.18;11.88;;;;;;;-144.30;97.54;85026.69;5110099;28;20289;-60
2023/06/17 01:30:00;;;;;;;13.75;11.95;;;;;;;-144.30;97.69;84998.88;5110221;28;20665;-61
2023/06/17 01:32:28;;;;;;;13.75;11.95;;;;;;;-144.30;97.33;85042.59;5110014;28;20263;-61
2023/06/17 01:35:00;;;;;;;12.40;11.15;;;;;;;-144.30;97.48;85048.56;5109859;28;20260;-61
2023/06/17 01:37:42;;;;;;;13.30;11.52;;;;;;;-144.30;97.54;84927.31;5109377;28;20255;-61
2023/06/17 01:40:14;;;;;;;11.02;10.13;;;;;;;-144.30;96.41;85062.47;5110000;28;20209;-60
2023/06/17 01:42:45;;;;;;;12.45;10.10;;;;;;;-144.30;96.50;85026.69;5109991;28;20744;-61
2023/06/17 01:45:13;;;;;;;16.95;11.07;;;;;;;-144.30;96.50;85082.34;5109813;28;20469;-61
2023/06/17 01:47:41;;;;;;;11.25;10.23;;;;;;;-144.30;96.54;85165.84;5109913;28;20561;-60
2023/06/17 01:50:08;;;;;;;11.35;10.27;;;;;;;-144.30;96.62;85048.56;5109487;28;20200;-56
2023/06/17 01:52:35;;;;;;;11.75;10.60;;;;;;;-144.30;96.66;85054.53;5109185;28;20191;-56
2023/06/17 01:55:02;;;;;;;12.93;10.15;;;;;;;-144.30;96.57;85104.22;5109296;28;20225;-57
2023/06/17 01:57:31;;;;;;;10.88;9.77;;;;;;;-144.30;96.41;85066.44;5109238;28;20596;-56
2023/06/17 01:59:58;;;;;;;11.32;10.38;;;;;;;-144.30;96.78;85024.72;5109409;28;20190;-56
2023/06/17 02:02:25;;;;;;;10.82;9.45;;;;;;;-144.30;96.85;85046.56;5109296;28;20207;-56
2023/06/17 02:04:52;;;;;;;11.98;10.43;;;;;;;-144.30;96.90;85044.59;5109170;28;20724;-56
2023/06/17 02:07:24;;;;;;;12.20;11.15;;;;;;;-144.30;97.26;85052.53;5109451;28;20190;-56
2023/06/17 02:09:51;;;;;;;13.25;10.82;;;;;;;-144.30;97.50;85044.59;5109290;28;20229;-56
2023/06/17 02:12:18;;;;;;;11.70;10.70;;;;;;;-144.30;97.70;85054.53;5109130;28;20194;-56
2023/06/17 02:14:47;;;;;;;13.13;11.75;;;;;;;-144.30;97.45;85050.53;5109118;28;20191;-57
2023/06/17 02:17:14;;;;;;;12.93;11.73;;;;;;;-144.30;97.76;85074.41;5109619;28;20207;-56
2023/06/17 02:19:41;;;;;;;13.60;11.07;;;;;;;-144.30;97.61;85042.59;5109083;28;20199;-55
2023/06/17 02:22:08;;;;;;;13.88;12.38;;;;;;;-144.30;97.81;85048.56;5109416;28;20671;-60
2023/06/17 02:24:35;;;;;;;13.35;12.07;;;;;;;-144.30;97.41;85054.53;5109248;28;20222;-61
2023/06/17 02:27:02;;;;;;;17.45;12.88;;;;;;;-144.30;97.61;85074.41;5109596;28;20201;-61
2023/06/17 02:29:29;;;;;;;17.83;11.63;;;;;;;-144.30;97.77;85062.47;5109752;28;20203;-60
2023/06/17 02:31:57;;;;;;;13.65;11.80;;;;;;;-144.30;97.70;85042.59;5109464;28;20201;-60
2023/06/17 02:34:24;;;;;;;16.42;12.95;;;;;;;-144.30;97.46;85028.69;5109177;28;20239;-60
2023/06/17 02:36:51;;;;;;;12.68;11.45;;;;;;;-144.30;96.92;85046.56;5109036;28;20202;-61
2023/06/17 02:39:18;;;;;;;13.93;11.60;;;;;;;-144.30;97.17;85062.47;5109042;28;20200;-62
2023/06/17 02:41:45;;;;;;;12.50;11.30;;;;;;;-144.30;97.75;85058.50;5109300;28;20647;-61
2023/06/17 02:44:12;;;;;;;12.20;11.05;;;;;;;-144.30;97.99;85034.66;5109266;28;20223;-61
2023/06/17 02:46:39;;;;;;;12.80;11.55;;;;;;;-144.30;98.09;85018.75;5109130;28;20195;-61
2023/06/17 02:49:07;;;;;;;13.75;12.27;;;;;;;-144.30;97.80;85038.63;5110125;28;20195;-56
2023/06/17 02:51:34;;;;;;;13.75;12.23;;;;;;;-144.30;97.51;85062.47;5112622;28;20236;-56
2023/06/17 02:54:01;;;;;;;13.70;11.65;;;;;;;-144.30;97.70;85040.59;5112485;28;20281;-56
2023/06/17 02:56:28;;;;;;;12.43;11.30;;;;;;;-144.30;97.35;85046.56;5112332;28;20195;-57
2023/06/17 02:58:55;;;;;;;14.25;12.75;;;;;;;-144.30;96.93;85024.72;5112675;28;20198;-55
2023/06/17 03:01:22;;;;;;;12.60;11.60;;;;;;;-144.30;97.33;85080.38;5112580;28;20199;-56
2023/06/17 03:03:49;;;;;;;12.23;11.18;;;;;;;-144.30;97.75;85030.66;5112335;28;20198;-56
2023/06/17 03:06:18;;;;;;;12.20;10.98;;;;;;;-144.30;97.94;85030.66;5112538;28;20222;-56
2023/06/17 03:08:45;;;;;;;12.98;11.85;;;;;;;-144.30;97.85;85080.38;5112239;28;20218;-56
2023/06/17 03:11:12;;;;;;;13.20;11.85;;;;;;;-144.30;97.97;85050.53;5112583;28;20195;-57
2023/06/17 03:13:39;;;;;;;13.00;11.77;;;;;;;-144.30;98.23;85028.69;5112491;28;20578;-57
2023/06/17 03:16:06;;;;;;;13.25;11.90;;;;;;;-144.30;98.40;85062.47;5112742;28;20187;-56
2023/06/17 03:18:33;;;;;;;16.70;11.68;;;;;;;-144.30;98.52;85058.50;5112044;28;20577;-57
2023/06/17 03:21:00;;;;;;;13.13;11.85;;;;;;;-144.30;98.29;85110.19;5111975;28;20700;-55
2023/06/17 03:23:28;;;;;;;15.80;12.70;;;;;;;-144.30;98.24;85032.66;5111916;28;20198;-56
2023/06/17 03:25:55;;;;;;;13.93;12.63;;;;;;;-144.30;98.43;85020.72;5112084;28;20605;-57
2023/06/17 03:28:22;;;;;;;12.27;11.23;;;;;;;-144.30;98.66;85036.63;5112095;28;20586;-56
2023/06/17 03:30:49;;;;;;;13.35;11.80;;;;;;;-144.30;98.62;85086.31;5112061;28;20221;-57
2023/06/17 03:33:16;;;;;;;13.20;11.70;;;;;;;-144.30;98.55;85070.44;5112098;28;20238;-56
2023/06/17 03:35:43;;;;;;;17.83;13.13;;;;;;;-144.30;98.17;85070.44;5111417;28;20195;-56
2023/06/17 03:38:10;;;;;;;16.45;12.57;;;;;;;-144.30;97.80;85042.59;5111398;28;20205;-55
2023/06/17 03:40:39;;;;;;;16.20;14.45;;;;;;;-144.30;97.65;85072.41;5111504;28;20277;-56
2023/06/17 03:43:06;;;;;;;15.65;14.05;;;;;;;-144.30;97.78;85016.75;5111633;28;20194;-57
2023/06/17 03:45:35;;;;;;;17.75;14.27;;;;;;;-144.30;97.24;85066.44;5111440;28;20214;-56
2023/06/17 03:48:02;;;;;;;15.30;13.90;;;;;;;-144.30;97.30;85058.50;5111420;28;20195;-56
2023/06/17 03:50:29;;;;;;;16.25;14.57;;;;;;;-144.30;97.09;85000.84;5111297;28;20202;-54
2023/06/17 03:52:56;;;;;;;19.73;14.13;;;;;;;-144.30;97.04;85014.78;5111292;28;20234;-56
2023/06/17 03:55:23;;;;;;;17.48;15.63;;;;;;;-144.30;96.90;84996.88;5111535;28;20571;-57
2023/06/17 03:57:52;;;;;;;19.60;15.00;;;;;;;-144.30;96.61;85026.69;5111369;28;20573;-55
2023/06/17 04:00:19;;;;;;;18.38;16.10;;;;;;;-144.30;96.61;84998.88;5111260;28;20742;-56
2023/06/17 04:02:47;;;;;;;16.88;15.13;;;;;;;-144.30;96.37;84951.16;5110386;28;20633;-56
2023/06/17 04:05:15;;;;;;;16.20;14.55;;;;;;;-144.30;95.74;84943.22;5110225;28;20214;-56
2023/06/17 04:07:42;;;;;;;15.85;13.48;;;;;;;-144.30;95.12;84903.47;5110143;28;20195;-56
2023/06/17 04:10:10;;;;;;;15.02;13.38;;;;;;;-144.30;95.18;84879.59;5110488;28;20198;-57
2023/06/17 04:12:38;;;;;;;18.42;13.55;;;;;;;-144.30;94.89;84939.25;5107752;28;20586;-57
2023/06/17 04:15:09;;;;;;;16.25;14.63;;;;;;;-144.30;95.23;84955.13;5110873;28;20199;-56
2023/06/17 04:17:37;;;;;;;22.25;13.65;;;;;;;-144.30;95.42;84947.19;5111091;28;20583;-55
2023/06/17 04:20:10;;;;;;;16.75;14.98;;;;;;;-144.30;96.20;85026.69;5110664;28;20240;-56
2023/06/17 04:22:37;;;;;;;17.10;14.73;;;;;;;-144.30;97.03;84980.97;5110233;28;20198;-55
2023/06/17 04:25:04;;;;;;;16.80;14.80;;;;;;;-144.30;97.75;85002.84;5110727;28;20733;-56
2023/06/17 04:27:31;;;;;;;17.30;15.60;;;;;;;-144.30;98.08;85026.69;5110659;28;20289;-58
2023/06/17 04:29:59;;;;;;;18.52;14.82;;;;;;;-144.30;98.21;85042.59;5110505;28;20198;-59
2023/06/17 04:32:27;;;;;;;19.38;17.05;;;;;;;-144.30;98.50;85016.75;5110850;28;20577;-59
2023/06/17 04:34:54;;;;;;;19.10;17.15;;;;;;;-144.30;98.72;85018.75;5110702;28;20241;-59
2023/06/17 04:37:22;;;;;;;22.55;19.08;;;;;;;-144.30;98.74;85028.69;5111354;28;20191;-59
2023/06/17 04:39:48;;;;;;;28.17;18.05;;;;;;;-144.30;98.53;85058.50;5110520;28;20248;-60
2023/06/17 04:42:16;;;;;;;30.17;19.67;;;;;;;-144.30;98.43;85002.84;5110684;28;20202;-59
2023/06/17 04:44:43;;;;;;;24.65;20.55;;;;;;;-144.30;98.49;84994.91;5110060;28;20251;-60
2023/06/17 04:47:12;;;;;;;20.70;18.10;;;;;;;-144.30;98.62;85010.78;5110684;28;20194;-62
2023/06/17 04:49:41;;;;;;;20.70;17.73;;;;;;;-144.30;98.65;85032.66;5110509;28;20681;-60
2023/06/17 04:52:09;;;;;;;22.08;17.27;;;;;;;-144.30;98.50;84996.88;5110475;28;20731;-63
2023/06/17 04:54:36;;;;;;;21.38;17.60;;;;;;;-144.30;98.45;84915.38;5106607;28;20206;-60
2023/06/17 04:57:04;;;;;;;24.30;17.88;;;;;;;-144.30;98.72;84990.91;5110018;28;20235;-60
2023/06/17 04:59:31;;;;;;;22.70;17.23;;;;;;;-144.30;99.03;85410.34;5110229;28;20608;-61
2023/06/17 05:01:58;;;;;;;21.45;17.73;;;;;;;-144.30;99.54;85008.81;5110063;28;20709;-60
2023/06/17 05:04:25;;;;;;;20.05;18.08;;;;;;;-144.30;100.00;85014.78;5107251;28;20198;-60
2023/06/17 05:06:53;;;;;;;28.90;18.42;;;;;;;-144.30;100.00;85008.81;5109578;28;20210;-60
2023/06/17 05:09:20;;;;;;;21.15;18.88;;;;;;;-144.30;100.00;84967.06;5108894;28;20218;-63
2023/06/17 05:11:47;;;;;;;19.98;17.42;;;;;;;-144.30;100.00;85022.72;5108307;28;20282;-61
2023/06/17 05:14:14;;;;;;;20.30;16.98;;;;;;;-144.30;100.00;85034.66;5109701;28;20202;-61
2023/06/17 05:16:41;;;;;;;20.13;17.20;;;;;;;-144.30;100.00;84990.91;5109121;28;20273;-62
2023/06/17 05:19:08;;;;;;;20.77;17.80;;;;;;;-144.30;100.00;85004.84;5109392;28;20194;-61
2023/06/17 05:21:35;;;;;;;18.92;17.02;;;;;;;-144.30;100.00;85022.72;5106124;28;20666;-62
2023/06/17 05:24:04;;;;;;;19.10;16.65;;;;;;;-144.30;100.00;85002.84;5108913;28;20586;-64
2023/06/17 05:26:30;;;;;;;19.35;17.33;;;;;;;-144.30;100.00;85028.69;5109591;28;20279;-66
2023/06/17 05:28:57;;;;;;;19.10;17.30;;;;;;;-144.30;100.00;85010.78;5109800;28;20556;-65
2023/06/17 05:31:24;;;;;;;17.98;16.30;;;;;;;-144.30;100.00;85008.81;5110355;28;20267;-65
2023/06/17 05:33:51;;;;;;;19.42;17.40;;;;;;;-144.30;100.00;84734.50;5109314;28;20219;-64
2023/06/17 05:36:18;;;;;;;25.73;17.92;;;;;;;-144.30;100.00;85010.78;5110666;28;20577;-68
2023/06/17 05:38:45;;;;;;;19.65;17.75;;;;;;;-144.30;100.00;85074.41;5109508;28;20198;-63
2023/06/17 05:41:13;;;;;;;20.67;18.60;;;;;;;-144.30;100.00;85062.47;5109869;28;20226;-63
2023/06/17 05:43:41;;;;;;;21.30;18.55;;;;;;;-144.30;100.00;85062.47;5111575;28;20670;-64
2023/06/17 05:46:07;;;;;;;22.40;18.98;;;;;;;-144.30;100.00;85078.38;5110658;28;20297;-65
2023/06/17 05:48:34;;;;;;;21.23;19.08;;;;;;;-144.30;100.00;85086.31;5108772;28;20200;-65
2023/06/17 05:51:01;;;;;;;21.60;19.13;;;;;;;-144.30;100.00;85072.41;5106469;28;20202;-64
2023/06/17 05:53:28;;;;;;;25.25;19.38;;;;;;;-144.30;100.00;85106.22;5109903;28;20198;-64
2023/06/17 05:55:55;;;;;;;21.27;19.10;;;;;;;-144.30;100.00;85048.56;5110989;28;20194;-63
2023/06/17 05:58:23;;;;;;;20.98;18.75;;;;;;;-144.30;100.00;85050.53;5109691;28;20190;-63
2023/06/17 06:00:50;;;;;;;20.35;18.27;;;;;;;-144.30;100.00;85022.72;5108947;28;20556;-63
2023/06/17 06:03:17;;;;;;;20.50;18.30;;;;;;;-144.30;100.00;85028.69;5109846;28;20690;-62
2023/06/17 06:05:44;;;;;;;19.08;17.17;;;;;;;-144.30;100.00;84990.91;5109992;28;20219;-63
2023/06/17 06:08:11;;;;;;;23.17;19.10;;;;;;;-144.30;100.00;85024.72;5110114;28;20205;-55
2023/06/17 06:10:38;;;;;;;21.77;19.58;;;;;;;-144.30;100.00;85002.84;5109817;28;20200;-56
2023/06/17 06:13:05;;;;;;;21.00;18.85;;;;;;;-144.30;100.00;84988.94;5109319;28;20203;-56
2023/06/17 06:15:33;;;;;;;21.08;18.73;;;;;;;-144.30;100.00;85004.84;5108490;28;20187;-55
2023/06/17 06:18:00;;;;;;;23.70;20.30;;;;;;;-144.30;100.00;84967.06;5108484;28;20190;-66
2023/06/17 06:20:28;;;;;;;20.15;18.15;;;;;;;-144.30;100.00;84933.28;5108585;28;20191;-66
2023/06/17 06:22:55;;;;;;;21.08;18.90;;;;;;;-144.30;100.00;84957.13;5108229;28;20198;-65
2023/06/17 06:25:22;;;;;;;22.77;18.75;;;;;;;-144.30;100.00;84957.13;5111612;28;20329;-66
2023/06/17 06:27:50;;;;;;;20.65;18.48;;;;;;;-144.30;100.00;84943.22;5112832;28;20195;-66
2023/06/17 06:30:17;;;;;;;20.90;18.90;;;;;;;-144.30;100.00;84875.63;5113427;28;20205;-66
2023/06/17 06:32:45;;;;;;;22.15;19.73;;;;;;;-144.30;100.00;84927.31;5113325;28;20201;-66
2023/06/17 06:35:12;;;;;;;23.98;19.52;;;;;;;-144.30;100.00;84961.09;5113438;28;20676;-65
2023/06/17 06:37:39;;;;;;;22.08;19.85;;;;;;;-144.30;100.00;84923.34;5113250;28;20201;-65
2023/06/17 06:40:08;;;;;;;22.05;19.98;;;;;;;-144.30;100.00;84945.19;5113524;28;20285;-66
2023/06/17 06:42:35;;;;;;;26.17;23.30;;;;;;;-144.30;100.00;84963.09;5109866;28;20959;-64
2023/06/17 06:45:02;;;;;;;25.80;23.20;;;;;;;-144.30;100.00;84963.09;5109860;28;20446;-65
2023/06/17 06:47:29;;;;;;;22.70;20.10;;;;;;;-144.30;100.00;84955.13;5112756;28;20700;-63
2023/06/17 06:49:57;;;;;;;23.65;21.23;;;;;;;-144.30;100.00;84943.22;5102220;28;20265;-66
2023/06/17 06:52:24;;;;;;;23.40;20.88;;;;;;;-144.30;100.00;84935.25;5106588;28;20202;-65
2023/06/17 06:54:51;;;;;;;25.38;21.95;;;;;;;-144.30;100.00;84907.44;5111441;27;20209;-65
2023/06/17 06:57:18;;;;;;;26.45;22.65;;;;;;;-144.30;100.00;84961.09;5111492;28;20194;-65
2023/06/17 06:59:45;;;;;;;24.88;22.20;;;;;;;-144.30;100.00;84953.16;5110729;28;20289;-65
2023/06/17 07:02:12;;;;;;;27.42;20.27;;;;;;;-144.30;100.00;84927.31;5112477;28;20285;-66
2023/06/17 07:04:39;;;;;;;21.25;19.35;;;;;;;-144.30;100.00;84933.28;5112474;28;20681;-66
2023/06/17 07:07:07;;;;;;;20.42;17.58;;;;;;;-144.30;100.00;84889.53;5112559;28;20218;-65
2023/06/17 07:09:34;;;;;;;20.63;18.63;;;;;;;-144.30;100.00;84923.34;5112303;28;20199;-65
2023/06/17 07:12:01;;;;;;;22.88;18.52;;;;;;;-144.30;100.00;84905.44;5111999;28;20198;-67
2023/06/17 07:14:28;;;;;;;23.08;18.88;;;;;;;-144.30;100.00;84901.47;5113033;28;20583;-67
2023/06/17 07:16:54;;;;;;;27.48;18.77;;;;;;;-144.30;100.00;84881.59;5112349;28;20593;-67
2023/06/17 07:19:21;;;;;;;19.83;17.83;;;;;;;-144.30;100.00;84893.53;5112152;28;20286;-67
2023/06/17 07:21:49;;;;;;;20.48;18.35;;;;;;;-144.30;100.00;84899.47;5111816;28;20564;-67
2023/06/17 07:24:17;;;;;;;20.15;18.23;;;;;;;-144.30;100.00;84907.44;5113259;28;20190;-64
2023/06/17 07:26:45;;;;;;;20.88;17.88;;;;;;;-144.30;100.00;84927.31;5112069;28;20233;-67
2023/06/17 07:29:12;;;;;;;21.25;18.98;;;;;;;-144.30;100.00;84909.41;5113109;28;20198;-66
2023/06/17 07:31:38;;;;;;;19.00;17.15;;;;;;;-144.30;100.00;84899.47;5111917;28;20202;-67
2023/06/17 07:34:05;;;;;;;21.25;16.48;;;;;;;-144.30;98.83;84915.38;5111774;28;20226;-67
2023/06/17 07:36:32;;;;;;;20.30;18.20;;;;;;;-144.30;99.72;84889.53;5111728;28;20198;-66
2023/06/17 07:38:59;;;;;;;20.35;16.77;;;;;;;-144.30;99.13;84871.66;5112579;28;20628;-66
2023/06/17 07:41:28;;;;;;;18.90;16.95;;;;;;;-144.30;99.32;84881.59;5111776;28;20191;-66
2023/06/17 07:43:54;;;;;;;22.83;19.95;;;;;;;-144.30;100.00;84851.78;5111690;28;20202;-66
2023/06/17 07:46:21;;;;;;;30.45;23.02;;;;;;;-144.30;100.00;84855.75;5111978;28;20214;-67
2023/06/17 07:48:48;;;;;;;31.80;23.92;;;;;;;-144.30;100.00;84835.88;5111831;28;20199;-66
2023/06/17 07:51:15;;;;;;;26.15;22.65;;;;;;;-144.30;100.00;84853.78;5111849;28;20191;-66
2023/06/17 07:53:42;;;;;;;25.55;22.92;;;;;;;-144.30;100.00;84786.19;5111504;28;20667;-57
2023/06/17 07:56:09;;;;;;;33.22;25.42;;;;;;;-144.30;100.00;84851.78;5111361;28;20612;-65
2023/06/17 07:58:38;;;;;;;26.02;23.38;;;;;;;-144.30;100.00;84831.91;5111339;28;20293;-64
2023/06/17 08:01:05;;;;;;;25.40;22.73;;;;;;;-144.30;100.00;84849.78;5111561;28;20209;-65
2023/06/17 08:03:32;;;;;;;31.25;25.92;;;;;;;-144.30;100.00;84859.72;5111518;28;20286;-65
2023/06/17 08:05:59;;;;;;;28.15;23.58;;;;;;;-144.30;100.00;84847.81;5111147;28;20229;-54
2023/06/17 08:08:26;;;;;;;29.27;23.23;;;;;;;-144.30;100.00;84899.47;5107958;28;20676;-56
2023/06/17 08:10:52;;;;;;;24.65;22.05;;;;;;;-144.30;100.00;84865.69;5108106;28;20203;-57
2023/06/17 08:13:19;;;;;;;25.60;23.05;;;;;;;-144.30;100.00;84867.69;5091427;28;20294;-66
2023/06/17 08:15:49;;;;;;;24.98;22.55;;;;;;;-144.30;100.00;84827.94;5090345;28;20286;-65
2023/06/17 08:18:17;;;;;;;26.35;23.75;;;;;;;-144.30;100.00;84855.75;5090436;28;20195;-66
2023/06/17 08:20:44;;;;;;;36.47;27.13;;;;;;;-144.30;100.00;84829.91;5090184;28;20615;-66
2023/06/17 08:23:11;;;;;;;29.23;22.65;;;;;;;-144.30;99.16;84833.88;5089060;28;20671;-66
2023/06/17 08:25:39;;;;;;;31.13;25.77;;;;;;;-144.30;99.22;84823.94;5090040;28;20785;-66
2023/06/17 08:28:06;;;;;;;29.90;26.48;;;;;;;-144.30;99.34;84823.94;5090581;28;20191;-65
2023/06/17 08:30:33;;;;;;;29.35;25.23;;;;;;;-144.30;99.52;84808.06;5090518;28;20195;-66
2023/06/17 08:33:01;;;;;;;28.13;24.88;;;;;;;-144.30;99.76;84776.25;5090008;28;20199;-65
2023/06/17 08:35:28;;;;;;;26.50;22.25;;;;;;;-144.30;98.91;84794.13;5090537;28;20658;-66
2023/06/17 08:37:55;;;;;;;27.20;22.20;;;;;;;-144.30;98.60;84804.06;5089937;28;20191;-65
2023/06/17 08:40:22;;;;;;;20.30;17.15;;;;;;;-144.30;96.88;84772.28;5090204;28;20199;-65
2023/06/17 08:42:58;;;;;;;18.60;16.95;;;;;;;-144.30;95.47;84788.19;5090096;28;20291;-65
2023/06/17 08:45:27;;;;;;;20.52;16.35;;;;;;;-144.30;95.52;84798.13;5093827;28;20209;-56
2023/06/17 08:47:53;;;;;;;19.50;17.30;;;;;;;-144.30;96.44;84808.06;5089052;28;20770;-56
2023/06/17 08:50:22;;;;;;;17.73;16.17;;;;;;;-144.30;95.71;84786.19;5089837;28;20199;-65
2023/06/17 08:52:50;;;;;;;20.60;17.50;;;;;;;-144.30;95.66;84782.22;5089852;28;20195;-65
2023/06/17 08:55:17;;;;;;;20.83;17.02;;;;;;;-144.30;95.57;84662.97;5090106;28;20695;-65
2023/06/17 08:57:45;;;;;;;20.70;18.70;;;;;;;-144.30;96.41;84762.34;5090031;28;20191;-66
2023/06/17 09:00:13;;;;;;;19.70;17.90;;;;;;;-144.30;96.46;84782.22;5100771;28;20226;-65
2023/06/17 09:02:44;;;;;;;18.27;16.50;;;;;;;-144.30;96.83;84804.06;5105408;28;20263;-65
2023/06/17 09:05:11;;;;;;;22.25;18.58;;;;;;;-144.30;96.85;84764.31;5108228;28;20446;-57
2023/06/17 09:07:41;;;;;;;18.95;16.92;;;;;;;-144.30;94.84;84758.38;5109568;28;20226;-57
2023/06/17 09:10:09;;;;;;;17.65;15.95;;;;;;;-144.30;95.50;84762.34;5110062;28;20671;-66
2023/06/17 09:12:38;;;;;;;21.02;16.98;;;;;;;-144.30;95.43;84742.47;5110012;28;20733;-57
2023/06/17 09:15:06;;;;;;;16.42;14.75;;;;;;;-144.30;92.67;84730.53;5109805;28;20248;-57
2023/06/17 09:17:33;;;;;;;18.85;13.77;;;;;;;-144.30;91.97;84758.38;5107106;28;20195;-66
2023/06/17 09:20:10;;;;;;;13.75;12.43;;;;;;;-144.30;91.55;84748.44;5107995;28;20285;-57
2023/06/17 09:22:41;;;;;;;13.70;12.25;;;;;;;-144.30;90.66;84704.69;5109509;28;20746;-57
2023/06/17 09:25:11;;;;;;;10.25;9.35;;;;;;;-144.30;89.22;84756.38;5109854;28;20296;-56
2023/06/17 09:27:45;;;;;;;10.98;9.63;;;;;;;-144.30;89.13;84794.13;5109243;28;20218;-57
2023/06/17 09:30:13;;;;;;;11.23;10.10;;;;;;;-144.30;88.59;84720.59;5109352;28;20621;-67
2023/06/17 09:32:41;;;;;;;12.98;11.73;;;;;;;-144.30;88.74;84690.78;5109269;28;20195;-66
2023/06/17 09:35:14;;;;;;;13.40;12.10;;;;;;;-144.30;87.87;84668.94;5107874;28;20230;-56
2023/06/17 09:37:44;;;;;;;14.98;13.77;;;;;;;-144.30;88.04;84633.16;5108654;28;20194;-67
2023/06/17 09:40:12;;;;;;;15.68;14.18;;;;;;;-144.30;88.40;84660.97;5106454;28;20194;-67
2023/06/17 09:42:39;;;;;;;16.70;15.00;;;;;;;-144.30;88.73;84583.47;5108651;28;20192;-66
2023/06/17 09:45:12;;;;;;;16.65;15.13;;;;;;;-144.30;87.83;84569.53;5109193;28;20628;-67
2023/06/17 09:47:40;;;;;;;17.92;16.27;;;;;;;-144.30;87.55;84553.66;5106096;28;20302;-66
2023/06/17 09:50:11;;;;;;;16.92;15.23;;;;;;;-144.30;87.38;84458.25;5108731;28;20198;-56
2023/06/17 09:52:39;;;;;;;17.95;16.17;;;;;;;-144.30;86.65;84498.00;5109031;28;20690;-56
2023/06/17 09:55:09;;;;;;;15.48;13.98;;;;;;;-144.30;85.28;84472.16;5109001;28;20201;-56
2023/06/17 09:57:39;;;;;;;18.55;14.35;;;;;;;-144.30;85.47;84432.41;5108775;28;20190;-67
2023/06/17 10:00:10;;;;;;;17.75;16.23;;;;;;;-144.30;85.67;84513.91;5113678;28;20198;-67
2023/06/17 10:02:39;;;;;;;25.90;18.77;;;;;;;-144.30;86.32;84466.19;5113197;28;20198;-67
2023/06/17 10:05:07;;;;;;;21.02;18.52;;;;;;;-144.30;86.39;84513.91;5113020;28;20557;-68
2023/06/17 10:07:35;;;;;;;20.73;18.83;;;;;;;-144.30;87.06;84484.09;5104809;28;20275;-67
2023/06/17 10:10:03;;;;;;;23.80;19.25;;;;;;;-144.30;86.64;84450.31;5097832;28;20218;-67
2023/06/17 10:12:33;;;;;;;23.75;20.50;;;;;;;-144.30;86.95;84482.09;5093136;28;20199;-67
2023/06/17 10:15:03;;;;;;;23.08;20.45;;;;;;;-144.30;87.75;84488.06;5104293;28;20194;-67
2023/06/17 10:17:33;;;;;;;23.52;21.17;;;;;;;-144.30;88.69;84513.91;5109866;28;20721;-56
2023/06/17 10:20:05;;;;;;;25.10;19.05;;;;;;;-144.30;86.34;84468.19;5112153;28;20204;-63
2023/06/17 10:22:35;;;;;;;21.00;18.95;;;;;;;-144.30;87.24;84509.94;5105512;28;20191;-63
2023/06/17 10:25:02;;;;;;;23.58;19.85;;;;;;;-144.30;87.38;84515.88;5107443;28;20272;-63
2023/06/17 10:27:31;;;;;;;24.75;22.15;;;;;;;-144.30;86.96;84567.56;5112586;28;20225;-63
2023/06/17 10:29:59;;;;;;;25.15;21.63;;;;;;;-144.30;86.46;84535.75;5112233;28;20594;-65
2023/06/17 10:32:26;;;;;;;27.50;24.45;;;;;;;-144.30;87.21;84519.88;5112461;28;20278;-64
2023/06/17 10:35:17;;;;;;;25.25;22.75;;;;;;;-144.30;88.96;84557.63;5112540;28;20231;-63
2023/06/17 10:37:47;;;;;;;22.75;20.33;;;;;;;-144.30;87.82;84575.50;5096705;28;20201;-63
2023/06/17 10:40:24;;;;;;;23.02;19.33;;;;;;;-144.30;87.99;84601.34;5110206;28;20206;-58
2023/06/17 10:43:17;;;;;;;20.15;18.05;;;;;;;-144.30;88.20;84597.38;5111399;27;20659;-58
2023/06/17 10:45:54;;;;;;;19.17;17.15;;;;;;;-144.30;88.52;84597.38;5110008;28;20199;-59
2023/06/17 10:48:23;;;;;;;19.77;17.20;;;;;;;-144.30;89.14;84599.34;5110055;28;20628;-57
2023/06/17 10:50:55;;;;;;;17.48;15.60;;;;;;;-144.30;90.48;84607.31;5111916;28;20334;-58
2023/06/17 10:53:30;;;;;;;16.45;13.80;;;;;;;-144.30;89.13;84517.88;5112075;28;20187;-58
2023/06/17 10:55:58;;;;;;;14.43;12.93;;;;;;;-144.30;89.41;84593.41;5110054;28;20198;-58
2023/06/17 10:58:37;;;;;;;13.57;12.18;;;;;;;-144.30;89.15;84541.72;5112100;28;20187;-58
2023/06/17 11:01:06;;;;;;;14.82;13.55;;;;;;;-144.30;89.42;84511.91;5110993;28;20194;-63
2023/06/17 11:03:34;;;;;;;13.68;12.48;;;;;;;-144.30;89.34;84507.94;5109636;28;20201;-64